Groom, Texas
Current Conditions -  °F | °C
As of 12:15 AM on Friday 19 Dec 2014 (Local Time) from KPPA Reporting Station
Overcast Overcast  
Wind Chill: 33°   Ceiling: 800
Heat Index: 37°   Visibility: 7mi
Dew Point: 34°   Wind: 5mph
Humidity: 90%   Direction: 210°SSW
Pressure: 30.18"   Gusts: NA
Location:  35.2°N, 101.11°W
Report Text: KPPA 190615Z AUTO 21004KT 7SM OVC008 03/01 A3018 RMK AO2 T00250010 PNO
Loading
Personal Weather Stations






























Interactive Weather Map New forecast layout! Learn more

10-Day Weather Forecast

Advertisements
Track Severe Weather on mobile